Time;durP1;ratioP1;P1;durP2;ratioP2;P2;SDS_P1;SDS_P2;PMS_P1;PMS_P2;Temp;Humidity;BMP_temperature;BMP_pressure;BME280_temperature;BME280_humidity;BME280_pressure;Samples;Min_cycle;Max_cycle;Signal;HPM_P1;HPM_P2
2021/09/18 00:01:16;;;;;;;;;15.50;13.00;;;;;24.89;42.81;101055.03;5021948;28;51105;-58
2021/09/18 00:03:42;;;;;;;;;13.75;13.50;;;;;24.88;42.95;101055.28;5023163;28;51057;-58
2021/09/18 00:06:07;;;;;;;;;13.50;13.00;;;;;24.86;42.73;101052.78;5017934;28;50964;-57
2021/09/18 00:08:33;;;;;;;;;13.25;11.75;;;;;24.86;42.59;101051.94;5017362;28;51718;-57
2021/09/18 00:10:58;;;;;;;;;11.50;10.25;;;;;24.85;42.55;101064.09;5019498;28;51358;-57
2021/09/18 00:13:23;;;;;;;;;14.50;11.75;;;;;24.83;42.31;101057.97;5017650;28;51521;-57
2021/09/18 00:15:49;;;;;;;;;12.50;11.00;;;;;24.82;42.83;101051.59;5018382;28;51116;-57
2021/09/18 00:18:14;;;;;;;;;12.25;9.50;;;;;24.82;42.70;101057.13;5017089;28;51765;-57
2021/09/18 00:20:39;;;;;;;;;12.50;12.00;;;;;24.81;42.54;101047.16;5018408;28;51023;-57
2021/09/18 00:23:05;;;;;;;;;9.50;7.50;;;;;24.81;42.48;101054.63;5034625;28;51309;-58
2021/09/18 00:25:30;;;;;;;;;14.50;10.75;;;;;24.79;42.66;101056.75;5036431;28;51052;-58
2021/09/18 00:27:56;;;;;;;;;10.50;10.00;;;;;24.77;42.56;101052.31;5025325;28;51137;-57
2021/09/18 00:30:21;;;;;;;;;11.50;11.00;;;;;24.76;42.54;101058.09;5035836;28;51245;-57
2021/09/18 00:32:47;;;;;;;;;12.25;11.00;;;;;24.76;42.47;101060.88;5021608;28;51176;-57
2021/09/18 00:35:12;;;;;;;;;14.50;13.00;;;;;24.76;42.30;101060.88;5017391;28;51397;-57
2021/09/18 00:37:37;;;;;;;;;18.50;12.75;;;;;24.75;42.59;101050.88;5018204;28;51262;-57
2021/09/18 00:40:07;;;;;;;;;12.50;10.25;;;;;24.73;42.63;101051.13;5017804;28;51033;-57
2021/09/18 00:42:33;;;;;;;;;17.75;14.50;;;;;24.73;42.84;101053.91;5017919;28;51218;-58
2021/09/18 00:44:58;;;;;;;;;12.75;12.75;;;;;24.71;42.61;101049.72;5034388;28;51116;-58
2021/09/18 00:47:24;;;;;;;;;15.50;13.75;;;;;24.71;42.65;101044.16;5035595;28;51807;-57
2021/09/18 00:49:49;;;;;;;;;15.00;13.00;;;;;24.69;42.66;101038.00;5034699;28;51123;-57
2021/09/18 00:52:21;;;;;;;;;17.50;14.75;;;;;24.69;42.68;101041.63;5025071;28;51403;-58
2021/09/18 00:54:49;;;;;;;;;14.50;13.25;;;;;24.68;42.85;101041.88;5020342;28;51270;-58
2021/09/18 00:57:15;;;;;;;;;15.75;14.25;;;;;24.66;42.86;101033.81;5036148;28;50972;-57
2021/09/18 00:59:42;;;;;;;;;16.25;13.25;;;;;24.66;42.83;101042.13;5026836;28;51088;-57
2021/09/18 01:02:08;;;;;;;;;16.50;16.25;;;;;24.64;42.79;101033.22;5032230;28;51263;-57
2021/09/18 01:04:33;;;;;;;;;16.50;15.50;;;;;24.64;42.83;101032.38;5036193;28;51010;-58
2021/09/18 01:06:58;;;;;;;;;13.75;13.75;;;;;24.64;42.75;101035.16;5034524;28;51878;-57
2021/09/18 01:09:25;;;;;;;;;15.75;13.50;;;;;24.62;42.85;101032.63;5018683;28;51060;-58
2021/09/18 01:11:50;;;;;;;;;18.00;15.50;;;;;24.61;42.71;101033.72;5024797;28;50916;-57
2021/09/18 01:14:16;;;;;;;;;13.50;13.50;;;;;24.60;42.90;101031.19;5036074;28;51001;-58
2021/09/18 01:16:41;;;;;;;;;18.75;17.00;;;;;24.60;42.69;101031.19;5031129;28;51807;-58
2021/09/18 01:19:07;;;;;;;;;16.25;15.25;;;;;24.59;42.73;101030.31;5016443;28;51434;-59
2021/09/18 01:21:32;;;;;;;;;14.25;11.75;;;;;24.59;43.03;101021.19;5022742;28;51104;-58
2021/09/18 01:23:57;;;;;;;;;16.50;15.25;;;;;24.58;42.86;101034.19;5026614;28;51041;-59
2021/09/18 01:26:35;;;;;;;;;12.50;12.50;;;;;24.57;42.76;101026.13;5032816;28;52082;-58
2021/09/18 01:29:02;;;;;;;;;15.25;14.25;;;;;24.56;42.68;101028.06;5016323;28;52369;-58
2021/09/18 01:31:28;;;;;;;;;12.00;12.00;;;;;24.55;42.64;101023.59;5015184;28;51159;-59
2021/09/18 01:33:54;;;;;;;;;12.75;12.25;;;;;24.55;42.39;101029.16;5032934;28;51212;-58
2021/09/18 01:36:20;;;;;;;;;13.50;12.50;;;;;24.54;42.62;101018.31;5033373;28;51192;-59
2021/09/18 01:38:47;;;;;;;;;12.75;10.75;;;;;24.53;42.50;101023.03;5034613;28;51035;-58
2021/09/18 01:41:12;;;;;;;;;11.25;11.25;;;;;24.51;42.51;101027.97;5033766;28;51134;-58
2021/09/18 01:43:38;;;;;;;;;16.00;14.50;;;;;24.51;42.62;101018.81;5017110;28;51026;-58
2021/09/18 01:46:03;;;;;;;;;16.25;14.00;;;;;24.51;42.45;101024.34;5026493;28;51232;-56
2021/09/18 01:48:28;;;;;;;;;21.00;16.50;;;;;24.50;42.67;101026.28;5021201;28;51014;-59
2021/09/18 01:50:57;;;;;;;;;13.50;13.25;;;;;24.50;42.78;101029.06;5035201;28;51056;-58
2021/09/18 01:53:24;;;;;;;;;12.25;12.25;;;;;24.51;42.85;101032.66;5016471;28;52282;-58
2021/09/18 01:55:51;;;;;;;;;12.75;12.00;;;;;24.50;43.05;101017.97;5015884;28;51893;-58
2021/09/18 01:58:17;;;;;;;;;16.00;13.00;;;;;24.50;42.93;101029.06;5016651;28;51156;-58
2021/09/18 02:00:49;;;;;;;;;11.25;11.25;;;;;24.51;42.83;101032.66;5034917;28;51083;-59
2021/09/18 02:03:14;;;;;;;;;10.75;9.25;;;;;24.50;42.78;101031.81;5017835;28;51085;-59
2021/09/18 02:05:40;;;;;;;;;12.75;11.00;;;;;24.49;42.71;101027.38;5033589;28;51039;-58
2021/09/18 02:08:06;;;;;;;;;10.75;9.00;;;;;24.49;42.77;101030.16;5022753;28;51167;-59
2021/09/18 02:10:32;;;;;;;;;11.75;10.25;;;;;24.47;42.85;101035.06;5031778;28;51123;-58
2021/09/18 02:12:59;;;;;;;;;11.25;10.25;;;;;24.46;42.50;101025.91;5019490;28;51063;-59
2021/09/18 02:15:25;;;;;;;;;9.75;9.25;;;;;24.45;42.40;101035.31;5016571;28;51772;-59
2021/09/18 02:17:51;;;;;;;;;9.75;9.75;;;;;24.44;42.38;101027.25;5031246;28;51310;-58
2021/09/18 02:20:19;;;;;;;;;10.25;9.50;;;;;24.43;42.77;101029.19;5015775;28;51212;-58
2021/09/18 02:22:44;;;;;;;;;10.25;10.25;;;;;24.43;42.61;101026.41;5029113;28;51178;-59
2021/09/18 02:25:11;;;;;;;;;9.75;9.50;;;;;24.42;42.36;101019.19;5032312;28;52929;-59
2021/09/18 02:27:37;;;;;;;;;10.75;9.75;;;;;24.42;42.18;101018.34;5028604;28;51237;-58
2021/09/18 02:30:05;;;;;;;;;10.00;10.00;;;;;24.41;42.52;101022.22;5033898;28;51280;-59
2021/09/18 02:32:30;;;;;;;;;9.25;9.00;;;;;24.40;42.48;101021.38;5016408;28;52440;-59
2021/09/18 02:34:56;;;;;;;;;13.00;9.75;;;;;24.38;42.34;101017.97;5018344;28;52911;-58
2021/09/18 02:37:21;;;;;;;;;11.00;7.25;;;;;24.38;42.00;101017.13;5016900;28;51082;-58
2021/09/18 02:39:47;;;;;;;;;10.50;10.50;;;;;24.37;42.09;101018.22;5020338;28;51231;-58
2021/09/18 02:42:12;;;;;;;;;9.00;9.00;;;;;24.36;42.15;101017.38;5020693;28;51073;-58
2021/09/18 02:44:38;;;;;;;;;9.00;7.50;;;;;24.35;42.24;101007.41;5032995;28;51672;-58
2021/09/18 02:47:03;;;;;;;;;9.50;7.50;;;;;24.35;42.23;101006.56;5034958;28;51177;-57
2021/09/18 02:49:28;;;;;;;;;9.00;9.00;;;;;24.34;41.94;101007.66;5034256;28;51210;-58
2021/09/18 02:51:54;;;;;;;;;8.25;8.00;;;;;24.33;42.21;101004.03;5028349;28;51032;-57
2021/09/18 02:54:19;;;;;;;;;8.00;8.00;;;;;24.33;42.21;101003.19;5016470;28;51882;-57
2021/09/18 02:56:44;;;;;;;;;10.00;8.25;;;;;24.31;42.05;101000.69;5032038;28;51089;-56
2021/09/18 02:59:10;;;;;;;;;11.50;11.50;;;;;24.32;42.15;101009.81;5034655;28;51223;-56
2021/09/18 03:01:36;;;;;;;;;9.25;9.00;;;;;24.30;42.10;101007.28;5031422;28;50984;-59
2021/09/18 03:04:02;;;;;;;;;10.00;8.25;;;;;24.30;42.12;101009.22;5017302;28;51984;-56
2021/09/18 03:06:27;;;;;;;;;10.25;9.25;;;;;24.30;42.16;101014.75;5023051;28;51177;-57
2021/09/18 03:08:55;;;;;;;;;10.00;9.00;;;;;24.28;42.03;101014.13;5034147;28;51569;-57
2021/09/18 03:11:20;;;;;;;;;9.50;8.00;;;;;24.27;41.93;101015.19;5027753;28;51337;-58
2021/09/18 03:13:46;;;;;;;;;9.75;9.50;;;;;24.27;41.84;101015.19;5032579;28;51095;-57
2021/09/18 03:16:11;;;;;;;;;9.00;9.00;;;;;24.27;42.34;101015.19;5032378;28;51221;-58
2021/09/18 03:18:36;;;;;;;;;8.00;7.75;;;;;24.25;42.13;101011.84;5019576;28;51129;-58
2021/09/18 03:21:02;;;;;;;;;10.75;9.75;;;;;24.25;42.14;101022.91;5015927;28;51084;-57
2021/09/18 03:23:27;;;;;;;;;8.50;8.50;;;;;24.24;42.45;101012.94;5017002;28;52038;-57
2021/09/18 03:25:53;;;;;;;;;7.00;7.00;;;;;24.23;42.18;101011.25;5018878;28;51225;-57
2021/09/18 03:28:18;;;;;;;;;8.25;7.75;;;;;24.24;42.24;101015.69;5026471;28;51136;-57
2021/09/18 03:30:43;;;;;;;;;10.00;9.75;;;;;24.23;42.38;101002.94;5028491;28;51172;-58
2021/09/18 03:33:09;;;;;;;;;9.25;8.00;;;;;24.22;42.18;101001.28;5023615;28;51764;-58
2021/09/18 03:35:34;;;;;;;;;7.75;7.25;;;;;24.21;42.21;101002.34;5018769;28;51115;-57
2021/09/18 03:37:59;;;;;;;;;7.75;7.75;;;;;24.21;41.84;101005.97;5026086;28;51214;-57
2021/09/18 03:40:25;;;;;;;;;9.00;9.00;;;;;24.20;42.06;100995.97;5026762;28;51279;-58
2021/09/18 03:42:50;;;;;;;;;9.50;7.75;;;;;24.18;42.25;100992.63;5019960;28;51099;-59
2021/09/18 03:45:15;;;;;;;;;8.50;8.50;;;;;24.17;42.49;100996.44;5018364;28;51080;-59
2021/09/18 03:47:41;;;;;;;;;9.75;7.00;;;;;24.17;42.41;100997.28;5018538;28;51071;-58
2021/09/18 03:50:08;;;;;;;;;10.00;9.00;;;;;24.15;42.32;100993.94;5019566;28;50970;-58
2021/09/18 03:52:35;;;;;;;;;9.00;9.00;;;;;24.14;42.31;100996.94;5028169;28;52820;-58
2021/09/18 03:55:00;;;;;;;;;10.75;10.50;;;;;24.13;42.04;100998.88;5037591;28;51399;-58
2021/09/18 03:57:25;;;;;;;;;11.75;9.50;;;;;24.13;42.33;100998.88;5030353;28;51172;-58
2021/09/18 03:59:51;;;;;;;;;14.00;12.75;;;;;24.13;42.14;101009.09;5031233;28;51172;-57
2021/09/18 04:02:16;;;;;;;;;15.75;11.75;;;;;24.11;42.27;100997.44;5026224;28;51926;-57
2021/09/18 04:04:42;;;;;;;;;14.00;12.00;;;;;24.11;42.24;101000.22;5036679;28;51107;-59
2021/09/18 04:07:07;;;;;;;;;10.25;10.25;;;;;24.10;42.06;101004.06;5029017;28;51122;-58
2021/09/18 04:09:32;;;;;;;;;14.00;9.50;;;;;24.09;42.25;101007.91;5019093;28;51260;-58
2021/09/18 04:11:58;;;;;;;;;13.75;11.00;;;;;24.08;42.47;101014.53;5021691;28;51124;-58
2021/09/18 04:14:23;;;;;;;;;13.25;9.75;;;;;24.07;42.00;101019.22;5031012;28;51299;-57
2021/09/18 04:16:48;;;;;;;;;8.25;8.25;;;;;24.07;42.39;101026.66;5018289;28;51219;-57
2021/09/18 04:19:14;;;;;;;;;11.75;10.00;;;;;24.06;41.92;101019.44;5018257;28;51132;-58
2021/09/18 04:21:39;;;;;;;;;10.50;9.00;;;;;24.05;42.34;101018.59;5019694;28;51850;-57
2021/09/18 04:24:05;;;;;;;;;10.00;9.50;;;;;24.03;42.66;101015.25;5027656;28;51152;-59
2021/09/18 04:26:31;;;;;;;;;11.00;9.75;;;;;24.04;42.57;101016.09;5033077;28;51083;-57
2021/09/18 04:28:56;;;;;;;;;5.00;5.00;;;;;24.02;42.44;101015.50;5018430;28;51369;-57
2021/09/18 04:31:22;;;;;;;;;8.00;7.50;;;;;24.02;42.36;101010.78;5017253;28;51131;-57
2021/09/18 04:33:47;;;;;;;;;9.00;8.00;;;;;24.01;42.21;101014.66;5026124;28;51009;-58
2021/09/18 04:36:13;;;;;;;;;13.50;10.00;;;;;24.01;42.43;101008.28;5025421;28;51502;-58
2021/09/18 04:38:38;;;;;;;;;8.25;8.25;;;;;24.00;42.37;101015.75;5017858;28;51268;-57
2021/09/18 04:41:04;;;;;;;;;8.00;8.00;;;;;24.00;42.63;101015.75;5018494;28;51115;-57
2021/09/18 04:43:29;;;;;;;;;9.25;9.25;;;;;23.99;42.24;101011.28;5018910;28;51090;-57
2021/09/18 04:45:55;;;;;;;;;9.00;9.00;;;;;23.99;42.46;101024.28;5017622;28;51128;-57
2021/09/18 04:48:20;;;;;;;;;9.75;9.50;;;;;23.98;42.25;101019.84;5029980;28;51026;-57
2021/09/18 04:50:46;;;;;;;;;7.50;7.50;;;;;23.97;42.13;101020.91;5035339;28;51422;-59
2021/09/18 04:53:11;;;;;;;;;12.75;9.50;;;;;23.96;42.82;101019.22;5023099;28;51143;-59
2021/09/18 04:55:36;;;;;;;;;7.00;7.00;;;;;23.96;42.61;101013.69;5033558;28;51271;-57
2021/09/18 04:58:02;;;;;;;;;7.25;7.25;;;;;23.95;42.44;101018.38;5036744;28;52368;-58
2021/09/18 05:00:28;;;;;;;;;8.75;7.00;;;;;23.95;42.40;101023.06;5034523;28;51990;-57
2021/09/18 05:02:53;;;;;;;;;8.75;8.00;;;;;23.94;42.63;101030.53;5027687;28;51244;-57
2021/09/18 05:05:18;;;;;;;;;7.00;7.00;;;;;23.94;42.39;101030.53;5026683;28;51261;-57
2021/09/18 05:07:44;;;;;;;;;7.00;7.00;;;;;23.93;42.58;101026.06;5025709;28;51600;-59
2021/09/18 05:10:09;;;;;;;;;10.25;8.25;;;;;23.92;42.66;101027.16;5019051;28;51124;-57
2021/09/18 05:12:35;;;;;;;;;7.75;7.00;;;;;23.92;42.56;101029.09;5022310;28;51120;-59
2021/09/18 05:15:00;;;;;;;;;6.50;6.50;;;;;23.91;42.62;101028.25;5036121;28;50997;-57
2021/09/18 05:17:26;;;;;;;;;6.50;6.50;;;;;23.92;42.49;101034.63;5036607;28;51164;-57
2021/09/18 05:19:51;;;;;;;;;6.00;6.00;;;;;23.91;42.75;101028.25;5036425;28;51135;-57
2021/09/18 05:22:16;;;;;;;;;6.00;5.00;;;;;23.90;42.70;101027.41;5033132;28;51094;-57
2021/09/18 05:24:41;;;;;;;;;7.00;7.00;;;;;23.88;42.59;101032.34;5036833;28;51023;-58
2021/09/18 05:27:07;;;;;;;;;10.00;7.25;;;;;23.88;42.43;101039.81;5029655;28;51057;-59
2021/09/18 05:29:32;;;;;;;;;7.00;7.00;;;;;23.88;42.25;101037.03;5017875;28;51128;-57
2021/09/18 05:31:58;;;;;;;;;7.50;7.50;;;;;23.87;42.63;101038.13;5018214;28;51049;-59
2021/09/18 05:34:23;;;;;;;;;7.00;6.00;;;;;23.86;42.17;101034.53;5035306;28;51141;-57
2021/09/18 05:36:48;;;;;;;;;7.50;6.25;;;;;23.87;42.19;101035.34;5035427;28;50959;-57
2021/09/18 05:39:14;;;;;;;;;6.25;6.25;;;;;23.86;42.60;101036.41;5034428;28;51790;-58
2021/09/18 05:41:40;;;;;;;;;7.75;6.00;;;;;23.85;42.36;101041.09;5035490;28;51128;-57
2021/09/18 05:44:05;;;;;;;;;9.25;8.00;;;;;23.85;42.78;101045.81;5017062;28;50957;-57
2021/09/18 05:46:30;;;;;;;;;5.75;5.75;;;;;23.83;42.83;101045.19;5026165;28;51370;-57
2021/09/18 05:48:56;;;;;;;;;7.50;6.00;;;;;23.83;42.29;101045.19;5033881;28;51028;-58
2021/09/18 05:51:21;;;;;;;;;6.25;6.00;;;;;23.81;42.26;101039.91;5034077;28;51152;-57
2021/09/18 05:53:47;;;;;;;;;7.25;5.00;;;;;23.81;42.15;101042.69;5024919;28;51116;-57
2021/09/18 05:56:12;;;;;;;;;6.25;6.00;;;;;23.80;42.49;101037.41;5016927;28;51144;-58
2021/09/18 05:58:38;;;;;;;;;9.00;6.25;;;;;23.78;42.37;101043.16;5017605;28;52013;-57
2021/09/18 06:01:03;;;;;;;;;7.25;7.25;;;;;23.78;42.33;101042.31;5016307;28;51426;-57
2021/09/18 06:03:29;;;;;;;;;6.75;6.75;;;;;23.78;42.62;101047.84;5018064;28;51048;-57
2021/09/18 06:05:54;;;;;;;;;6.00;6.00;;;;;23.75;42.44;101046.41;5018594;28;51202;-57
2021/09/18 06:08:20;;;;;;;;;8.50;7.00;;;;;23.76;42.42;101055.53;5024302;28;51166;-57
2021/09/18 06:10:45;;;;;;;;;8.25;6.75;;;;;23.75;42.69;101051.09;5035280;28;51194;-58
2021/09/18 06:13:10;;;;;;;;;8.25;8.25;;;;;23.73;42.58;101054.09;5033894;28;51147;-57
2021/09/18 06:15:36;;;;;;;;;8.00;5.50;;;;;23.73;42.73;101064.31;5027163;28;51148;-56
2021/09/18 06:18:01;;;;;;;;;7.50;7.00;;;;;23.71;42.35;101055.41;5035271;28;51164;-57
2021/09/18 06:20:26;;;;;;;;;10.50;10.50;;;;;23.71;42.91;101067.31;5033901;28;51022;-58
2021/09/18 06:22:52;;;;;;;;;6.75;6.75;;;;;23.71;42.30;101063.72;5026453;28;51003;-57
2021/09/18 06:25:18;;;;;;;;;6.00;6.00;;;;;23.70;42.64;101057.34;5016339;28;51120;-57
2021/09/18 06:27:43;;;;;;;;;7.00;7.00;;;;;23.70;42.79;101070.34;5027943;28;51607;-56
2021/09/18 06:30:10;;;;;;;;;7.00;7.00;;;;;23.69;42.42;101060.34;5028729;28;51070;-58
2021/09/18 06:32:35;;;;;;;;;7.00;6.50;;;;;23.69;42.88;101057.59;5022428;28;51292;-57
2021/09/18 06:35:01;;;;;;;;;8.00;6.00;;;;;23.68;42.63;101058.66;5033979;28;51148;-57
2021/09/18 06:37:26;;;;;;;;;6.25;6.25;;;;;23.69;42.83;101060.34;5019959;28;51154;-56
2021/09/18 06:39:52;;;;;;;;;9.75;8.25;;;;;23.66;42.51;101058.06;5016036;28;51280;-57
2021/09/18 06:42:17;;;;;;;;;7.25;7.25;;;;;23.66;42.65;101056.16;5025230;28;51704;-57
2021/09/18 06:44:44;;;;;;;;;6.75;6.25;;;;;23.65;42.38;101056.38;5024411;28;51494;-58
2021/09/18 06:47:10;;;;;;;;;6.00;5.25;;;;;23.64;42.66;101055.53;5034702;28;51067;-57
2021/09/18 06:49:36;;;;;;;;;7.25;6.50;;;;;23.63;42.49;101061.28;5034744;28;51230;-57
2021/09/18 06:52:01;;;;;;;;;7.75;6.00;;;;;23.61;42.37;101065.16;5033897;28;51100;-57
2021/09/18 06:54:26;;;;;;;;;9.75;9.25;;;;;23.59;42.71;101056.25;5032654;28;50978;-58
2021/09/18 06:56:52;;;;;;;;;7.75;7.75;;;;;23.58;42.40;101051.81;5034265;28;51087;-56
2021/09/18 06:59:17;;;;;;;;;8.00;7.00;;;;;23.59;42.50;101059.00;5026677;28;51192;-57
2021/09/18 07:01:43;;;;;;;;;9.00;7.75;;;;;23.59;42.77;101055.41;5026032;28;51064;-56
2021/09/18 07:04:08;;;;;;;;;8.75;8.50;;;;;23.58;42.82;101060.09;5019613;28;51234;-57
2021/09/18 07:06:34;;;;;;;;;8.25;7.50;;;;;23.58;42.88;101060.09;5026022;28;51683;-56
2021/09/18 07:08:59;;;;;;;;;10.25;9.00;;;;;23.57;42.69;101061.16;5025273;28;51055;-56
2021/09/18 07:11:24;;;;;;;;;10.25;8.25;;;;;23.58;44.51;101060.09;5036127;28;50989;-56
2021/09/18 07:13:50;;;;;;;;;8.00;6.50;;;;;23.60;45.66;101060.69;5028985;28;51002;-56
2021/09/18 07:16:15;;;;;;;;;8.25;7.50;;;;;23.65;45.79;101064.66;5036827;28;52132;-57
2021/09/18 07:18:40;;;;;;;;;10.75;8.50;;;;;23.66;45.99;101063.59;5030571;28;51103;-57
2021/09/18 07:21:06;;;;;;;;;15.25;7.00;;;;;23.70;45.46;101070.34;5019021;28;51164;-56
2021/09/18 07:23:31;;;;;;;;;7.75;6.00;;;;;23.72;44.87;101065.41;5018952;28;51236;-57
2021/09/18 07:25:56;;;;;;;;;8.00;8.00;;;;;23.73;44.93;101065.16;5030450;28;51151;-58
2021/09/18 07:28:22;;;;;;;;;8.00;6.75;;;;;23.76;43.70;101061.94;5025788;28;51148;-56
2021/09/18 07:30:48;;;;;;;;;10.75;8.25;;;;;23.77;43.56;101065.53;5020287;28;51195;-56
2021/09/18 07:33:13;;;;;;;;;7.00;7.00;;;;;23.77;45.05;101071.06;5032468;28;51204;-55
2021/09/18 07:35:38;;;;;;;;;9.00;7.25;;;;;23.77;45.51;101071.06;5020966;28;51865;-54
2021/09/18 07:38:04;;;;;;;;;9.50;6.50;;;;;23.79;45.55;101068.91;5034528;28;51049;-56
2021/09/18 07:40:34;;;;;;;;;10.00;8.50;;;;;23.80;44.69;101067.81;5036281;28;51259;-56
2021/09/18 07:43:00;;;;;;;;;8.50;7.00;;;;;23.81;44.96;101061.19;5023607;28;51353;-56
2021/09/18 07:45:26;;;;;;;;;9.50;8.00;;;;;23.81;44.42;101075.88;5024920;28;51947;-57
2021/09/18 07:47:51;;;;;;;;;11.50;8.00;;;;;23.81;44.47;101072.28;5027602;28;51100;-55
2021/09/18 07:50:16;;;;;;;;;12.25;9.75;;;;;23.82;44.63;101074.78;5037556;28;51096;-54
2021/09/18 07:52:42;;;;;;;;;6.50;6.50;;;;;23.82;44.55;101082.25;5032751;28;51010;-56
2021/09/18 07:55:09;;;;;;;;;8.75;8.25;;;;;23.81;44.14;101077.81;5033299;28;51115;-57
2021/09/18 07:57:35;;;;;;;;;10.75;8.25;;;;;23.82;44.08;101079.47;5029897;28;51123;-57
2021/09/18 08:00:00;;;;;;;;;10.75;8.75;;;;;23.83;44.58;101078.41;5018094;28;50959;-57
2021/09/18 08:02:26;;;;;;;;;9.50;8.25;;;;;23.84;44.05;101083.69;5029395;28;51314;-56
2021/09/18 08:04:51;;;;;;;;;6.75;6.75;;;;;23.85;44.05;101079.84;5022033;28;50995;-57
2021/09/18 08:07:20;;;;;;;;;9.75;9.00;;;;;23.86;44.11;101086.22;5036517;28;51139;-54
2021/09/18 08:09:46;;;;;;;;;9.00;8.00;;;;;23.87;43.72;101087.94;5032508;28;51206;-56
2021/09/18 08:12:11;;;;;;;;;8.50;7.75;;;;;23.88;43.69;101089.59;5027823;28;51135;-57
2021/09/18 08:14:37;;;;;;;;;8.25;7.25;;;;;23.89;44.16;101088.53;5019180;28;51677;-58
2021/09/18 08:17:02;;;;;;;;;9.00;7.75;;;;;23.88;43.70;101087.69;5036984;28;51082;-55
2021/09/18 08:19:28;;;;;;;;;10.75;7.75;;;;;23.89;43.48;101086.59;5021687;28;51158;-57
2021/09/18 08:21:53;;;;;;;;;7.25;7.25;;;;;23.90;44.00;101098.50;5031064;28;51314;-55
2021/09/18 08:24:18;;;;;;;;;8.00;7.25;;;;;23.90;43.50;101098.50;5035411;28;51112;-55
2021/09/18 08:26:44;;;;;;;;;9.50;8.50;;;;;23.90;43.69;101088.28;5027979;28;51413;-55
2021/09/18 08:29:10;;;;;;;;;10.00;9.00;;;;;23.92;43.85;101093.56;5031144;28;51088;-55
2021/09/18 08:31:35;;;;;;;;;8.00;6.00;;;;;23.94;44.00;101093.31;5032459;28;51258;-52
2021/09/18 08:34:01;;;;;;;;;10.00;8.00;;;;;23.94;43.47;101094.16;5027484;28;51079;-56
2021/09/18 08:36:26;;;;;;;;;9.00;9.00;;;;;23.96;43.69;101102.22;5033874;28;51295;-55
2021/09/18 08:38:51;;;;;;;;;8.25;6.25;;;;;23.96;43.76;101085.63;5029506;28;51187;-55
2021/09/18 08:41:17;;;;;;;;;7.75;7.25;;;;;23.96;43.51;101089.22;5034568;28;51130;-55
2021/09/18 08:43:44;;;;;;;;;10.00;8.25;;;;;23.97;43.76;101093.72;5030602;28;51110;-54
2021/09/18 08:46:09;;;;;;;;;9.75;9.00;;;;;23.97;43.96;101093.72;5022753;28;51255;-52
2021/09/18 08:48:39;;;;;;;;;8.75;7.50;;;;;23.98;43.90;101089.00;5034679;28;51174;-55
2021/09/18 08:51:04;;;;;;;;;10.75;8.75;;;;;23.99;43.63;101085.16;5017777;28;51129;-55
2021/09/18 08:53:30;;;;;;;;;11.25;9.00;;;;;24.00;43.74;101081.31;5016619;28;52116;-54
2021/09/18 08:55:57;;;;;;;;;8.50;8.00;;;;;23.99;43.57;101074.94;5023009;28;51158;-52
2021/09/18 08:58:24;;;;;;;;;10.00;10.00;;;;;23.99;43.86;101077.69;5024366;28;51243;-56
2021/09/18 09:00:51;;;;;;;;;11.00;8.00;;;;;24.01;44.16;101077.47;5028846;28;51490;-55
2021/09/18 09:03:27;;;;;;;;;9.25;8.50;;;;;24.03;44.18;101083.59;5033925;28;51093;-55
2021/09/18 09:06:06;;;;;;;;;11.75;10.25;;;;;24.04;44.21;101075.03;5033525;28;51479;-56
2021/09/18 09:08:32;;;;;;;;;8.75;8.75;;;;;24.07;43.65;101082.88;5027625;28;52242;-56
2021/09/18 09:10:57;;;;;;;;;9.00;8.00;;;;;24.09;43.51;101075.19;5022513;28;51388;-58
2021/09/18 09:13:25;;;;;;;;;8.75;8.00;;;;;24.13;43.32;101075.53;5025629;28;51792;-57
2021/09/18 09:16:06;;;;;;;;;13.00;10.50;;;;;24.15;43.63;101078.88;5018203;28;51325;-57
2021/09/18 09:18:39;;;;;;;;;9.00;9.00;;;;;24.17;43.45;101077.56;5016537;28;51087;-58
2021/09/18 09:21:10;;;;;;;;;9.75;9.25;;;;;24.17;43.38;101074.78;5016512;28;51252;-57
2021/09/18 09:23:36;;;;;;;;;12.00;10.50;;;;;24.20;43.02;101070.72;5017113;28;51037;-57
2021/09/18 09:26:01;;;;;;;;;10.75;10.75;;;;;24.22;43.05;101064.94;5036344;28;51199;-57
2021/09/18 09:28:33;;;;;;;;;9.75;9.75;;;;;24.24;43.17;101071.06;5025578;28;51283;-56
2021/09/18 09:31:28;;;;;;;;;10.75;8.25;;;;;24.25;42.86;101065.28;5016436;28;51285;-57
2021/09/18 09:34:15;;;;;;;;;10.00;8.00;;;;;24.27;43.08;101067.81;5033173;28;52266;-56
2021/09/18 09:36:51;;;;;;;;;7.75;7.75;;;;;24.28;42.65;101067.59;5034921;28;51191;-56
2021/09/18 09:39:20;;;;;;;;;9.50;9.25;;;;;24.31;42.70;101069.06;5035146;28;51242;-56
2021/09/18 09:41:48;;;;;;;;;8.25;8.25;;;;;24.32;42.72;101062.44;5035127;28;51112;-56
2021/09/18 09:44:20;;;;;;;;;9.25;7.75;;;;;24.34;42.59;101069.41;5014745;28;51939;-57
2021/09/18 09:47:05;;;;;;;;;10.25;10.25;;;;;24.35;42.73;101061.94;5015594;28;51235;-57
2021/09/18 09:49:40;;;;;;;;;10.00;8.25;;;;;24.37;42.81;101066.13;5015583;28;51036;-56
2021/09/18 09:52:27;;;;;;;;;8.00;8.00;;;;;24.38;42.79;101059.50;5015509;28;51521;-56
2021/09/18 09:55:07;;;;;;;;;10.00;9.50;;;;;24.42;42.69;101069.03;5016477;28;51224;-56
2021/09/18 09:57:32;;;;;;;;;9.00;9.00;;;;;24.43;42.76;101056.03;5015099;28;51376;-57
2021/09/18 10:00:05;;;;;;;;;8.00;7.50;;;;;24.45;42.88;101056.63;5020640;28;51563;-56
2021/09/18 10:02:30;;;;;;;;;8.25;8.25;;;;;24.47;42.59;101060.81;5034973;28;51081;-56
2021/09/18 10:04:56;;;;;;;;;11.00;9.50;;;;;24.47;42.62;101049.75;5033072;28;52045;-56
2021/09/18 10:07:22;;;;;;;;;11.25;10.25;;;;;24.51;42.62;101054.81;5034349;28;51109;-56
2021/09/18 10:09:47;;;;;;;;;8.00;8.00;;;;;24.52;42.73;101056.50;5035011;28;51031;-57
2021/09/18 10:12:14;;;;;;;;;9.50;9.50;;;;;24.54;42.54;101059.84;5031976;28;51044;-57
2021/09/18 10:14:47;;;;;;;;;13.75;10.75;;;;;24.56;42.49;101052.97;5015373;28;53107;-56
2021/09/18 10:17:12;;;;;;;;;9.25;9.25;;;;;24.58;42.41;101055.50;5024914;28;51129;-56
2021/09/18 10:24:50;;;;;;;;;10.75;9.75;;;;;24.63;42.12;101056.47;5024672;28;51049;-56
2021/09/18 10:27:24;;;;;;;;;11.25;11.00;;;;;24.65;42.55;101045.13;5025093;28;51501;-56
2021/09/18 10:29:51;;;;;;;;;12.25;11.50;;;;;24.67;42.46;101042.94;5026759;28;51667;-56
2021/09/18 10:32:19;;;;;;;;;14.00;11.75;;;;;24.67;42.23;101046.56;5024694;28;51232;-56
2021/09/18 10:34:45;;;;;;;;;11.75;11.25;;;;;24.68;42.49;101048.25;5017638;28;51256;-57
2021/09/18 10:37:32;;;;;;;;;15.00;11.75;;;;;24.70;42.34;101037.78;5030040;28;51081;-57
2021/09/18 10:40:08;;;;;;;;;11.25;11.25;;;;;24.73;42.41;101047.53;5019306;28;51283;-55
2021/09/18 10:42:36;;;;;;;;;13.50;9.75;;;;;24.73;42.08;101037.28;5027724;28;51061;-56
2021/09/18 10:45:03;;;;;;;;;10.00;10.00;;;;;24.75;42.50;101035.09;5019947;28;51110;-56
2021/09/18 10:47:41;;;;;;;;;12.25;11.00;;;;;24.75;42.19;101034.25;5027904;28;51086;-57
2021/09/18 10:50:21;;;;;;;;;10.75;9.25;;;;;24.77;42.08;101037.63;5023268;28;51222;-56
2021/09/18 10:53:11;;;;;;;;;8.75;8.75;;;;;24.79;41.84;101024.34;5026982;28;51648;-56
2021/09/18 10:55:50;;;;;;;;;8.75;8.00;;;;;24.80;42.05;101016.88;5018682;28;51456;-56
2021/09/18 10:58:16;;;;;;;;;7.00;7.00;;;;;24.81;41.93;101011.13;5019246;28;51349;-56
2021/09/18 11:00:44;;;;;;;;;11.00;9.75;;;;;24.82;41.97;101011.97;5028507;28;51157;-56
2021/09/18 11:03:09;;;;;;;;;10.50;10.00;;;;;24.83;42.08;101013.66;5023476;28;51350;-55
2021/09/18 11:05:38;;;;;;;;;11.75;11.00;;;;;24.83;42.03;101003.41;5029089;28;51885;-55
2021/09/18 11:08:19;;;;;;;;;11.00;10.25;;;;;24.84;41.94;100999.53;5023585;28;51333;-56
2021/09/18 11:10:44;;;;;;;;;9.25;9.00;;;;;24.84;41.92;100994.00;5023474;28;51139;-55
2021/09/18 11:13:09;;;;;;;;;10.25;8.75;;;;;24.86;42.08;100997.34;5027695;28;51012;-56
2021/09/18 11:15:56;;;;;;;;;8.75;7.50;;;;;24.87;42.05;101006.50;5028068;28;51211;-56
2021/09/18 11:18:41;;;;;;;;;12.25;11.00;;;;;24.87;42.33;100999.03;5024352;28;51133;-57
2021/09/18 11:21:09;;;;;;;;;9.75;8.75;;;;;24.87;42.59;100996.25;5020742;28;51461;-58
2021/09/18 11:23:56;;;;;;;;;8.50;8.00;;;;;24.89;42.55;100996.84;5023885;28;51079;-59